Time;durP1;ratioP1;P1;durP2;ratioP2;P2;SDS_P1;SDS_P2;PMS_P1;PMS_P2;Temp;Humidity;BMP_temperature;BMP_pressure;BME280_temperature;BME280_humidity;BME280_pressure;Samples;Min_cycle;Max_cycle;Signal;HPM_P1;HPM_P2
2023/04/03 00:00:56;;;;;;;0.00;0.00;;;2.90;21.70;;;;;;5033665;28;20041;-79
2023/04/03 00:03:21;;;;;;;0.00;0.00;;;2.90;25.10;;;;;;5016127;28;20557;-80
2023/04/03 00:05:47;;;;;;;0.00;0.00;;;2.90;32.10;;;;;;5016089;28;20057;-79
2023/04/03 00:08:13;;;;;;;0.00;0.00;;;2.90;31.90;;;;;;5000387;28;20054;-79
2023/04/03 00:10:39;;;;;;;0.10;0.10;;;2.80;27.60;;;;;;5017131;28;20041;-79
2023/04/03 00:13:06;;;;;;;0.00;0.00;;;2.80;30.70;;;;;;5032385;28;20085;-79
2023/04/03 00:15:32;;;;;;;0.00;0.00;;;2.80;29.60;;;;;;5017071;28;20041;-79
2023/04/03 00:17:57;;;;;;;0.00;0.00;;;2.80;35.70;;;;;;5016304;28;20045;-79
2023/04/03 00:20:23;;;;;;;0.00;0.00;;;2.80;33.70;;;;;;5016357;28;20049;-79
2023/04/03 00:22:49;;;;;;;0.00;0.00;;;2.70;36.30;;;;;;5032613;28;20133;-79
2023/04/03 00:25:14;;;;;;;0.00;0.00;;;2.80;35.50;;;;;;5032549;28;20433;-79
2023/04/03 00:27:40;;;;;;;0.00;0.00;;;2.80;36.90;;;;;;5000662;28;20056;-79
2023/04/03 00:30:10;;;;;;;0.10;0.00;;;2.80;34.10;;;;;;5016142;28;20122;-79
2023/04/03 00:32:36;;;;;;;0.00;0.00;;;2.70;32.90;;;;;;5016021;28;20037;-79
2023/04/03 00:35:02;;;;;;;0.00;0.00;;;2.60;33.60;;;;;;5032270;28;20048;-79
2023/04/03 00:37:28;;;;;;;0.00;0.00;;;2.60;45.20;;;;;;5033258;28;20042;-79
2023/04/03 00:39:53;;;;;;;0.00;0.00;;;2.80;44.90;;;;;;5016034;28;20132;-80
2023/04/03 00:42:19;;;;;;;0.00;0.00;;;2.60;43.10;;;;;;5016042;28;20049;-79
2023/04/03 00:44:45;;;;;;;0.00;0.00;;;2.70;46.80;;;;;;5016082;28;20132;-79
2023/04/03 00:47:13;;;;;;;0.38;0.15;;;2.70;41.40;;;;;;5032432;28;20072;-79
2023/04/03 00:49:39;;;;;;;0.00;0.00;;;2.60;44.00;;;;;;5034173;28;20492;-80
2023/04/03 00:52:08;;;;;;;0.00;0.00;;;2.60;46.90;;;;;;5015953;28;20042;-79
2023/04/03 00:54:36;;;;;;;0.00;0.00;;;2.60;49.80;;;;;;5032923;28;20382;-79
2023/04/03 00:57:02;;;;;;;0.00;0.00;;;2.60;47.60;;;;;;5015801;28;20052;-79
2023/04/03 00:59:33;;;;;;;0.00;0.00;;;2.60;50.60;;;;;;5016694;28;20056;-79
2023/04/03 01:02:00;;;;;;;0.00;0.00;;;2.60;48.00;;;;;;5033102;28;20465;-79
2023/04/03 01:04:31;;;;;;;0.00;0.00;;;2.50;42.30;;;;;;5018106;28;20045;-79
2023/04/03 01:07:02;;;;;;;0.00;0.00;;;2.50;49.90;;;;;;5035937;28;20068;-80
2023/04/03 01:09:29;;;;;;;0.00;0.00;;;2.50;56.40;;;;;;5020486;28;20371;-79
2023/04/03 01:12:12;;;;;;;0.00;0.00;;;2.50;54.60;;;;;;5036730;28;20045;-80
2023/04/03 01:14:37;;;;;;;0.00;0.00;;;2.40;54.40;;;;;;5019586;28;20048;-80
2023/04/03 01:17:03;;;;;;;0.00;0.00;;;2.40;53.70;;;;;;5019138;28;20053;-79
2023/04/03 01:19:29;;;;;;;0.00;0.00;;;2.40;56.70;;;;;;5019370;28;20055;-79
2023/04/03 01:22:18;;;;;;;0.00;0.00;;;2.30;59.60;;;;;;5019355;28;20135;-79
2023/04/03 01:24:46;;;;;;;1.98;0.10;;;2.30;55.40;;;;;;5036690;28;20049;-79
2023/04/03 01:27:12;;;;;;;0.00;0.00;;;2.20;59.70;;;;;;5019193;28;20060;-79
2023/04/03 01:29:38;;;;;;;0.15;0.00;;;2.20;57.20;;;;;;5020106;28;20041;-79
2023/04/03 01:32:04;;;;;;;0.00;0.00;;;2.20;55.70;;;;;;5035417;28;20103;-80
2023/04/03 01:34:31;;;;;;;0.00;0.00;;;2.20;64.40;;;;;;5018845;28;20041;-79
2023/04/03 01:36:57;;;;;;;0.00;0.00;;;2.10;63.50;;;;;;5035705;28;20111;-79
2023/04/03 01:39:23;;;;;;;0.00;0.00;;;2.10;64.90;;;;;;5019082;28;20042;-79
2023/04/03 01:41:49;;;;;;;0.00;0.00;;;2.10;66.50;;;;;;5035665;28;20139;-79
2023/04/03 01:44:15;;;;;;;0.00;0.00;;;2.10;64.00;;;;;;5019000;28;20053;-79
2023/04/03 01:46:42;;;;;;;0.00;0.00;;;2.10;66.20;;;;;;5035356;28;20041;-79
2023/04/03 01:49:08;;;;;;;0.00;0.00;;;2.10;66.40;;;;;;5019035;28;20497;-79
2023/04/03 01:51:33;;;;;;;0.00;0.00;;;2.10;65.80;;;;;;5002498;28;20051;-79
2023/04/03 01:53:59;;;;;;;0.00;0.00;;;2.10;65.90;;;;;;5002336;28;20042;-79
2023/04/03 01:56:25;;;;;;;0.00;0.00;;;2.00;67.40;;;;;;5018776;28;20046;-79
2023/04/03 01:58:51;;;;;;;0.00;0.00;;;2.00;68.60;;;;;;5035138;28;20049;-79
2023/04/03 02:01:17;;;;;;;0.00;0.00;;;2.00;65.40;;;;;;5019410;28;20053;-79
2023/04/03 02:03:43;;;;;;;0.00;0.00;;;1.90;71.30;;;;;;5035343;28;20489;-79
2023/04/03 02:06:09;;;;;;;0.00;0.00;;;1.90;70.40;;;;;;5018712;28;20057;-79
2023/04/03 02:08:35;;;;;;;1.45;0.20;;;1.90;69.80;;;;;;5019239;28;20132;-80
2023/04/03 02:11:00;;;;;;;0.00;0.00;;;1.80;72.70;;;;;;5018482;28;20126;-79
2023/04/03 02:13:26;;;;;;;1.95;1.00;;;1.80;71.80;;;;;;5002796;28;20048;-79
2023/04/03 02:15:52;;;;;;;1.25;0.98;;;1.80;70.80;;;;;;5033600;28;20156;-79
2023/04/03 02:18:18;;;;;;;0.00;0.00;;;1.80;70.70;;;;;;5018332;28;20042;-79
2023/04/03 02:20:43;;;;;;;0.00;0.00;;;1.80;70.20;;;;;;5018300;28;20049;-79
2023/04/03 02:23:10;;;;;;;0.30;0.10;;;1.70;70.30;;;;;;5018252;28;20411;-79
2023/04/03 02:25:35;;;;;;;0.20;0.05;;;1.60;72.50;;;;;;5001908;28;20053;-79
2023/04/03 02:28:01;;;;;;;0.00;0.00;;;1.60;75.20;;;;;;5018112;28;20049;-79
2023/04/03 02:30:27;;;;;;;0.00;0.00;;;1.60;72.30;;;;;;5035447;28;20148;-80
2023/04/03 02:32:53;;;;;;;0.00;0.00;;;1.50;76.20;;;;;;5017807;28;20099;-79
2023/04/03 02:35:19;;;;;;;0.00;0.00;;;1.50;73.90;;;;;;5034396;28;20057;-79
2023/04/03 02:37:45;;;;;;;0.00;0.00;;;1.50;74.50;;;;;;5034181;28;20045;-79
2023/04/03 02:40:11;;;;;;;0.00;0.00;;;1.40;73.30;;;;;;5001311;28;20440;-79
2023/04/03 02:42:37;;;;;;;0.03;0.03;;;1.40;75.20;;;;;;5002317;28;20052;-79
2023/04/03 02:45:03;;;;;;;0.00;0.00;;;1.50;76.50;;;;;;5017810;28;20060;-79
2023/04/03 02:47:29;;;;;;;0.00;0.00;;;1.40;76.70;;;;;;5018660;28;20085;-79
2023/04/03 02:49:55;;;;;;;0.00;0.00;;;1.40;78.00;;;;;;5017951;28;20191;-79
2023/04/03 02:52:21;;;;;;;0.00;0.00;;;1.40;78.50;;;;;;5034838;28;20471;-79
2023/04/03 02:54:46;;;;;;;0.15;0.03;;;1.40;81.20;;;;;;5001070;28;20095;-79
2023/04/03 02:57:12;;;;;;;0.00;0.00;;;1.30;79.00;;;;;;5034001;28;20102;-79
2023/04/03 02:59:41;;;;;;;0.00;0.00;;;1.30;78.10;;;;;;5034744;28;20091;-79
2023/04/03 03:02:08;;;;;;;0.10;0.10;;;1.30;78.10;;;;;;5018015;28;20132;-79
2023/04/03 03:04:34;;;;;;;0.00;0.00;;;1.30;78.40;;;;;;5033529;28;20050;-79
2023/04/03 03:07:00;;;;;;;0.08;0.00;;;1.30;82.60;;;;;;5016705;28;20053;-79
2023/04/03 03:09:26;;;;;;;0.00;0.00;;;1.20;80.70;;;;;;5017322;28;20378;-79
2023/04/03 03:11:52;;;;;;;0.00;0.00;;;1.20;80.70;;;;;;5017647;28;20057;-79
2023/04/03 03:14:17;;;;;;;0.00;0.00;;;1.10;81.10;;;;;;5034642;28;20054;-79
2023/04/03 03:16:43;;;;;;;0.00;0.00;;;1.30;81.50;;;;;;5034138;28;20047;-79
2023/04/03 03:19:10;;;;;;;0.00;0.00;;;1.10;79.60;;;;;;5017172;28;20053;-79
2023/04/03 03:21:35;;;;;;;0.00;0.00;;;1.10;80.60;;;;;;5034397;28;20389;-79
2023/04/03 03:24:01;;;;;;;0.00;0.00;;;1.10;80.70;;;;;;5017361;28;20041;-80
2023/04/03 03:26:27;;;;;;;0.00;0.00;;;1.00;78.80;;;;;;5034000;28;20132;-79
2023/04/03 03:28:52;;;;;;;0.13;0.13;;;1.10;80.90;;;;;;5017837;28;20487;-79
2023/04/03 03:31:18;;;;;;;0.00;0.00;;;1.00;84.10;;;;;;5016988;28;20080;-79
2023/04/03 03:33:44;;;;;;;0.00;0.00;;;1.00;84.80;;;;;;5017448;28;20045;-79
2023/04/03 03:36:10;;;;;;;0.08;0.00;;;1.00;84.80;;;;;;5033242;28;20064;-79
2023/04/03 03:38:36;;;;;;;0.00;0.00;;;1.00;83.50;;;;;;5017677;28;20049;-79
2023/04/03 03:41:02;;;;;;;0.00;0.00;;;1.00;80.80;;;;;;5016830;28;20053;-79
2023/04/03 03:43:28;;;;;;;0.00;0.00;;;1.00;81.60;;;;;;5016711;28;20485;-79
2023/04/03 03:45:54;;;;;;;0.20;0.20;;;1.00;84.20;;;;;;5032892;28;20077;-79
2023/04/03 03:48:21;;;;;;;0.00;0.00;;;0.90;83.30;;;;;;5033236;28;20115;-79
2023/04/03 03:50:48;;;;;;;0.00;0.00;;;0.90;84.50;;;;;;5016640;28;20048;-79
2023/04/03 03:53:14;;;;;;;0.00;0.00;;;0.90;84.00;;;;;;5033026;28;20049;-79
2023/04/03 03:55:40;;;;;;;0.00;0.00;;;0.80;84.20;;;;;;5033008;28;20080;-79
2023/04/03 03:58:06;;;;;;;0.00;0.00;;;0.80;84.50;;;;;;5016495;28;20045;-79
2023/04/03 04:00:32;;;;;;;0.00;0.00;;;0.80;82.60;;;;;;5000182;28;20045;-79
2023/04/03 04:02:58;;;;;;;0.00;0.00;;;0.80;82.60;;;;;;5016440;28;20053;-79
2023/04/03 04:05:24;;;;;;;21.65;0.55;;;0.80;86.60;;;;;;5016128;28;20057;-79
2023/04/03 04:07:50;;;;;;;0.00;0.00;;;0.80;83.70;;;;;;5017279;28;20053;-79
2023/04/03 04:10:16;;;;;;;0.00;0.00;;;0.80;85.60;;;;;;5000917;28;20378;-79
2023/04/03 04:12:42;;;;;;;0.00;0.00;;;0.80;88.60;;;;;;5000250;28;20048;-79
2023/04/03 04:15:08;;;;;;;0.00;0.00;;;0.80;88.70;;;;;;5016785;28;20412;-79
2023/04/03 04:17:35;;;;;;;0.15;0.00;;;0.80;88.00;;;;;;5032902;28;20366;-80
2023/04/03 04:20:02;;;;;;;0.00;0.00;;;1.00;85.20;;;;;;5016253;28;20477;-79
2023/04/03 04:22:28;;;;;;;0.00;0.00;;;0.80;87.20;;;;;;5032865;28;20046;-80
2023/04/03 04:24:53;;;;;;;1.20;0.00;;;0.70;89.80;;;;;;5015934;28;20041;-80
2023/04/03 04:27:19;;;;;;;0.00;0.00;;;0.70;87.40;;;;;;5016414;28;20041;-79
2023/04/03 04:29:45;;;;;;;0.00;0.00;;;0.70;86.70;;;;;;4999713;28;20449;-79
2023/04/03 04:32:11;;;;;;;0.00;0.00;;;0.70;90.20;;;;;;5016065;28;20045;-79
2023/04/03 04:34:36;;;;;;;0.00;0.00;;;0.70;89.70;;;;;;5015844;28;20132;-79
2023/04/03 04:37:02;;;;;;;0.00;0.00;;;0.70;90.00;;;;;;5016041;28;20119;-79
2023/04/03 04:39:27;;;;;;;0.00;0.00;;;0.60;90.40;;;;;;5019035;28;20478;-79
2023/04/03 04:41:53;;;;;;;0.30;0.30;;;0.60;87.30;;;;;;5004424;28;20088;-79
2023/04/03 04:44:19;;;;;;;0.00;0.00;;;0.60;91.10;;;;;;5003699;28;20053;-79
2023/04/03 04:46:45;;;;;;;0.55;0.55;;;0.50;91.50;;;;;;5003442;28;20041;-79
2023/04/03 04:49:11;;;;;;;0.00;0.00;;;0.50;91.20;;;;;;5019854;28;20074;-79
2023/04/03 04:51:36;;;;;;;0.00;0.00;;;0.50;91.30;;;;;;5036304;28;20038;-79
2023/04/03 04:54:02;;;;;;;0.00;0.00;;;0.50;91.20;;;;;;5019669;28;20102;-79
2023/04/03 04:56:28;;;;;;;0.85;0.55;;;0.50;91.20;;;;;;5019584;28;20045;-79
2023/04/03 04:58:53;;;;;;;1.45;0.05;;;0.50;90.90;;;;;;5036206;28;20045;-79
2023/04/03 05:01:19;;;;;;;0.00;0.00;;;0.40;89.00;;;;;;5019929;28;20183;-79
2023/04/03 05:03:45;;;;;;;0.00;0.00;;;0.40;87.10;;;;;;5003332;28;20371;-79
2023/04/03 05:06:11;;;;;;;0.00;0.00;;;0.40;89.10;;;;;;5019352;28;20053;-79
2023/04/03 05:08:37;;;;;;;0.43;0.43;;;0.30;87.20;;;;;;5019743;28;20133;-79
2023/04/03 05:11:03;;;;;;;0.00;0.00;;;0.30;88.20;;;;;;5036153;28;20049;-78
2023/04/03 05:13:29;;;;;;;0.00;0.00;;;0.30;87.50;;;;;;5019384;28;20408;-79
2023/04/03 05:15:55;;;;;;;0.00;0.00;;;0.30;86.80;;;;;;5003526;28;20124;-81
2023/04/03 05:18:20;;;;;;;0.00;0.00;;;0.40;85.90;;;;;;5035817;28;20482;-81
2023/04/03 05:20:49;;;;;;;0.00;0.00;;;0.60;86.60;;;;;;5020110;28;20144;-80
2023/04/03 05:23:15;;;;;;;0.45;0.28;;;0.40;91.10;;;;;;5019683;28;20064;-81
2023/04/03 05:25:40;;;;;;;0.73;0.17;;;0.40;90.20;;;;;;5035706;28;20041;-80
2023/04/03 05:28:06;;;;;;;0.10;0.10;;;0.50;89.40;;;;;;5035627;28;20539;-80
2023/04/03 05:30:32;;;;;;;0.00;0.00;;;0.40;89.00;;;;;;5036702;28;20542;-81
2023/04/03 05:32:59;;;;;;;0.00;0.00;;;0.40;89.20;;;;;;5003698;28;20183;-81
2023/04/03 05:35:25;;;;;;;0.10;0.10;;;0.40;87.40;;;;;;5002853;28;20114;-81
2023/04/03 05:37:51;;;;;;;0.00;0.00;;;0.40;88.60;;;;;;5035792;28;20042;-81
2023/04/03 05:40:18;;;;;;;0.00;0.00;;;0.50;87.50;;;;;;5019213;28;20139;-81
2023/04/03 05:42:44;;;;;;;0.00;0.00;;;0.50;89.70;;;;;;5035348;28;20137;-81
2023/04/03 05:45:10;;;;;;;0.00;0.00;;;0.50;90.10;;;;;;5034824;28;20204;-80
2023/04/03 05:47:35;;;;;;;0.00;0.00;;;0.60;91.10;;;;;;5018885;28;20503;-81
2023/04/03 05:50:01;;;;;;;0.00;0.00;;;0.70;91.20;;;;;;5018961;28;20093;-81
2023/04/03 05:52:31;;;;;;;0.00;0.00;;;0.80;90.60;;;;;;5035240;28;20042;-81
2023/04/03 05:54:57;;;;;;;0.10;0.10;;;1.00;86.80;;;;;;5018551;28;20396;-81
2023/04/03 05:57:23;;;;;;;0.00;0.00;;;0.90;88.70;;;;;;5019556;28;20057;-82
2023/04/03 05:59:49;;;;;;;0.00;0.00;;;0.90;86.50;;;;;;5035188;28;20144;-81
2023/04/03 06:02:18;;;;;;;0.00;0.00;;;1.00;87.50;;;;;;5035391;28;20146;-81
2023/04/03 06:04:45;;;;;;;0.00;0.00;;;1.20;90.30;;;;;;5018793;28;20049;-81
2023/04/03 06:07:13;;;;;;;0.10;0.10;;;1.50;89.60;;;;;;5034583;28;20085;-82
2023/04/03 06:09:39;;;;;;;0.00;0.00;;;1.80;87.70;;;;;;5018231;28;20528;-85
2023/04/03 06:12:05;;;;;;;0.00;0.00;;;2.10;77.10;;;;;;5003153;28;20077;-85
2023/04/03 06:14:31;;;;;;;0.00;0.00;;;2.50;72.90;;;;;;5017084;28;20504;-80
2023/04/03 06:16:57;;;;;;;0.00;0.00;;;2.30;72.00;;;;;;5034827;28;20057;-81
2023/04/03 06:19:23;;;;;;;2.92;0.45;;;2.20;66.80;;;;;;5034766;28;20043;-81
2023/04/03 06:21:49;;;;;;;0.00;0.00;;;2.30;66.70;;;;;;5018258;28;20114;-81
2023/04/03 06:24:16;;;;;;;0.00;0.00;;;2.20;66.80;;;;;;5034718;28;20049;-81
2023/04/03 06:26:42;;;;;;;0.10;0.00;;;2.20;68.30;;;;;;5034149;28;20080;-80
2023/04/03 06:29:08;;;;;;;0.00;0.00;;;2.30;70.80;;;;;;5018263;28;20053;-80
2023/04/03 06:31:36;;;;;;;0.00;0.00;;;2.60;77.60;;;;;;5035721;28;20582;-81
2023/04/03 06:34:02;;;;;;;0.00;0.00;;;3.10;70.20;;;;;;5034970;28;20045;-81
2023/04/03 06:36:29;;;;;;;0.00;0.00;;;3.40;55.10;;;;;;5002127;28;20049;-81
2023/04/03 06:38:55;;;;;;;0.13;0.13;;;3.80;56.90;;;;;;5034592;28;20051;-81
2023/04/03 06:41:21;;;;;;;0.00;0.00;;;4.20;41.50;;;;;;5034145;28;20150;-81
2023/04/03 06:43:47;;;;;;;0.05;0.00;;;4.70;26.40;;;;;;5034178;28;20136;-81
2023/04/03 06:46:19;;;;;;;0.00;0.00;;;5.40;26.70;;;;;;5018139;28;20045;-81
2023/04/03 06:48:45;;;;;;;0.43;0.28;;;5.90;4.50;;;;;;5034570;28;20049;-82
2023/04/03 06:51:23;;;;;;;0.00;0.00;;;6.10;1.00;;;;;;5018008;28;20056;-81
2023/04/03 06:53:51;;;;;;;0.00;0.00;;;6.50;1.00;;;;;;5017792;28;20490;-81
2023/04/03 06:56:17;;;;;;;0.00;0.00;;;6.80;1.00;;;;;;5035171;28;20521;-81
2023/04/03 06:58:43;;;;;;;0.10;0.10;;;7.10;1.00;;;;;;5034985;28;20404;-81
2023/04/03 07:01:11;;;;;;;0.55;0.43;;;7.40;1.00;;;;;;5034389;28;20140;-81
2023/04/03 07:03:38;;;;;;;0.00;0.00;;;7.90;1.00;;;;;;5017603;28;20053;-81
2023/04/03 07:06:06;;;;;;;0.20;0.13;;;7.80;99.90;;;;;;5033424;28;20501;-80
2023/04/03 07:08:33;;;;;;;0.00;0.00;;;7.50;99.90;;;;;;5018396;28;20111;-82
2023/04/03 07:10:59;;;;;;;0.45;0.30;;;7.90;99.90;;;;;;5034201;28;20513;-81
2023/04/03 07:13:25;;;;;;;0.00;0.00;;;8.40;99.90;;;;;;5033986;28;20088;-81
2023/04/03 07:15:51;;;;;;;0.85;0.30;;;8.40;1.00;;;;;;5017295;28;20091;-81
2023/04/03 07:18:19;;;;;;;0.00;0.00;;;8.70;1.00;;;;;;5017725;28;20049;-81
2023/04/03 07:20:45;;;;;;;0.25;0.25;;;9.10;1.00;;;;;;5017628;28;20081;-82
2023/04/03 07:23:11;;;;;;;0.00;0.00;;;9.40;99.90;;;;;;5033831;28;20041;-80
2023/04/03 07:25:42;;;;;;;0.00;0.00;;;9.50;99.90;;;;;;5033904;28;20045;-80
2023/04/03 07:28:08;;;;;;;0.00;0.00;;;10.00;99.90;;;;;;5033984;28;20064;-82
2023/04/03 07:30:34;;;;;;;0.00;0.00;;;10.20;99.90;;;;;;5017812;28;20061;-82
2023/04/03 07:33:00;;;;;;;0.00;0.00;;;10.90;22.50;;;;;;5017179;28;20041;-81
2023/04/03 07:35:26;;;;;;;0.08;0.08;;;11.80;87.20;;;;;;5001033;28;20369;-83
2023/04/03 07:37:53;;;;;;;0.00;0.00;;;12.40;90.00;;;;;;5033385;28;20050;-80
2023/04/03 07:40:18;;;;;;;0.00;0.00;;;12.60;30.40;;;;;;5017171;28;20460;-82
2023/04/03 07:42:44;;;;;;;0.00;0.00;;;12.40;99.90;;;;;;5017181;28;20050;-81
2023/04/03 07:45:10;;;;;;;0.13;0.13;;;12.40;99.90;;;;;;5033190;28;20045;-80
2023/04/03 07:47:36;;;;;;;0.00;0.00;;;12.60;99.90;;;;;;5016636;28;20056;-80
2023/04/03 07:50:02;;;;;;;0.00;0.00;;;12.70;45.60;;;;;;5016729;28;20045;-80
2023/04/03 07:52:27;;;;;;;0.00;0.00;;;12.50;1.00;;;;;;5016411;28;20041;-79
2023/04/03 07:54:53;;;;;;;0.00;0.00;;;12.50;1.00;;;;;;5032746;28;20124;-80
2023/04/03 07:57:19;;;;;;;0.05;0.00;;;11.80;1.00;;;;;;5017450;28;20049;-81
2023/04/03 07:59:45;;;;;;;0.00;0.00;;;11.50;1.00;;;;;;5016572;28;20045;-80
2023/04/03 08:02:11;;;;;;;0.00;0.00;;;10.70;1.00;;;;;;5017838;28;20108;-85
2023/04/03 08:04:36;;;;;;;0.00;0.00;;;10.30;1.00;;;;;;5032852;28;20045;-83
2023/04/03 08:07:02;;;;;;;0.00;0.00;;;9.80;1.00;;;;;;5016237;28;20183;-84
2023/04/03 08:09:28;;;;;;;0.00;0.00;;;9.40;1.00;;;;;;5017448;28;20397;-84
2023/04/03 08:11:54;;;;;;;0.03;0.03;;;9.00;1.00;;;;;;5000888;28;20052;-86
2023/04/03 08:14:20;;;;;;;0.00;0.00;;;8.80;34.50;;;;;;5016520;28;20048;-82
2023/04/03 08:16:47;;;;;;;0.00;0.00;;;8.50;1.00;;;;;;5017376;28;20453;-81
2023/04/03 08:19:15;;;;;;;0.00;0.00;;;8.40;80.50;;;;;;5016661;28;20049;-80
2023/04/03 08:21:41;;;;;;;2.05;0.70;;;8.20;99.90;;;;;;5000548;28;20167;-81
2023/04/03 08:24:08;;;;;;;0.00;0.00;;;8.10;99.90;;;;;;5032466;28;20045;-80
2023/04/03 08:26:34;;;;;;;0.00;0.00;;;8.00;99.90;;;;;;5033453;28;20377;-80
2023/04/03 08:29:00;;;;;;;0.00;0.00;;;7.80;99.90;;;;;;5000579;28;20060;-80
2023/04/03 08:31:26;;;;;;;0.32;0.32;;;7.60;99.90;;;;;;5032581;28;20045;-80
2023/04/03 08:33:52;;;;;;;0.00;0.00;;;7.40;46.00;;;;;;5033230;28;20052;-81
2023/04/03 08:36:27;;;;;;;0.00;0.00;;;7.30;39.40;;;;;;5032234;28;20533;-81
2023/04/03 08:38:54;;;;;;;0.00;0.00;;;7.30;73.40;;;;;;5032961;28;20049;-80
2023/04/03 08:41:42;;;;;;;0.00;0.00;;;7.20;7.40;;;;;;5032484;28;20049;-80
2023/04/03 08:44:22;;;;;;;2.75;0.20;;;7.20;61.10;;;;;;5033242;28;20067;-81
2023/04/03 08:47:07;;;;;;;0.00;0.00;;;7.20;39.60;;;;;;5032253;28;20093;-80
2023/04/03 08:49:40;;;;;;;0.00;0.00;;;7.30;93.20;;;;;;5016264;28;20048;-80
2023/04/03 08:52:12;;;;;;;0.00;0.00;;;7.30;61.00;;;;;;5033795;28;20278;-80
2023/04/03 08:55:01;;;;;;;0.00;0.00;;;7.40;3.00;;;;;;5032543;28;20046;-80
2023/04/03 08:57:42;;;;;;;0.00;0.00;;;7.60;93.90;;;;;;5033221;28;20043;-80
2023/04/03 09:00:28;;;;;;;0.00;0.00;;;7.70;6.00;;;;;;5016210;28;20111;-80
2023/04/03 09:02:55;;;;;;;0.00;0.00;;;8.00;28.20;;;;;;5032634;28;20103;-80
2023/04/03 09:05:59;;;;;;;0.00;0.00;;;8.20;14.90;;;;;;5031837;28;20076;-80
2023/04/03 09:08:30;;;;;;;0.00;0.00;;;8.60;1.00;;;;;;5031942;28;20053;-80
2023/04/03 09:11:16;;;;;;;0.00;0.00;;;8.50;1.00;;;;;;5015800;28;20103;-80
2023/04/03 09:14:02;;;;;;;0.00;0.00;;;8.50;1.00;;;;;;5015980;28;20111;-80
2023/04/03 09:16:46;;;;;;;0.00;0.00;;;8.50;99.90;;;;;;5032222;28;20056;-80
2023/04/03 09:19:29;;;;;;;0.00;0.00;;;8.70;99.90;;;;;;5031941;28;20132;-80
2023/04/03 09:21:58;;;;;;;5.65;0.88;;;9.00;1.00;;;;;;5015935;28;20146;-80
2023/04/03 09:24:24;;;;;;;0.00;0.00;;;9.20;99.90;;;;;;5032762;28;20041;-80
2023/04/03 09:26:59;;;;;;;0.00;0.00;;;9.20;99.90;;;;;;5035713;28;20061;-80
2023/04/03 09:29:25;;;;;;;0.00;0.00;;;9.20;99.90;;;;;;5035821;28;20499;-80
2023/04/03 09:32:02;;;;;;;0.00;0.00;;;9.10;99.90;;;;;;5035447;28;20485;-80
2023/04/03 09:34:35;;;;;;;0.00;0.00;;;9.10;99.90;;;;;;5035572;28;20512;-80
2023/04/03 09:37:06;;;;;;;0.00;0.00;;;9.30;99.90;;;;;;5035979;28;20041;-80
2023/04/03 09:39:50;;;;;;;0.00;0.00;;;9.50;99.90;;;;;;5019450;28;20053;-80
2023/04/03 09:42:19;;;;;;;0.00;0.00;;;9.80;99.90;;;;;;5036422;28;20422;-80
2023/04/03 09:44:54;;;;;;;0.00;0.00;;;9.80;99.90;;;;;;5035760;28;20095;-80
2023/04/03 09:47:29;;;;;;;0.00;0.00;;;9.70;99.90;;;;;;5019727;28;20144;-81
2023/04/03 09:50:20;;;;;;;0.13;0.13;;;9.80;99.90;;;;;;5036193;28;20041;-81
2023/04/03 09:52:48;;;;;;;0.10;0.00;;;9.80;99.90;;;;;;5026442;28;20089;-80
2023/04/03 09:55:21;;;;;;;0.00;0.00;;;10.00;99.90;;;;;;5035277;28;20056;-80
2023/04/03 09:57:49;;;;;;;0.00;0.00;;;10.10;99.90;;;;;;5019002;28;20555;-80
2023/04/03 10:00:23;;;;;;;0.20;0.20;;;10.20;99.90;;;;;;5035383;28;20129;-80
2023/04/03 10:02:54;;;;;;;0.32;0.32;;;10.20;99.90;;;;;;5034859;28;20059;-80
2023/04/03 10:05:38;;;;;;;0.00;0.00;;;10.10;99.90;;;;;;5019377;28;20045;-79
2023/04/03 10:08:14;;;;;;;0.00;0.00;;;10.10;99.90;;;;;;5034885;28;20058;-80
2023/04/03 10:10:46;;;;;;;0.00;0.00;;;10.20;99.90;;;;;;5035830;28;20060;-80
2023/04/03 10:13:20;;;;;;;0.00;0.00;;;10.30;99.90;;;;;;5034967;28;20323;-80
2023/04/03 10:15:58;;;;;;;0.00;0.00;;;10.50;99.90;;;;;;5035154;28;20041;-80
2023/04/03 10:18:31;;;;;;;0.00;0.00;;;10.50;99.90;;;;;;5034496;28;20046;-79
2023/04/03 10:21:12;;;;;;;0.10;0.10;;;10.40;86.80;;;;;;5034725;28;20128;-80
2023/04/03 10:24:06;;;;;;;0.00;0.00;;;10.30;90.10;;;;;;5035597;28;20053;-80
2023/04/03 10:26:37;;;;;;;0.00;0.00;;;10.70;99.90;;;;;;5034830;28;20500;-80
2023/04/03 10:29:27;;;;;;;0.00;0.00;;;10.90;98.40;;;;;;5034948;28;20045;-80
2023/04/03 10:32:01;;;;;;;0.00;0.00;;;10.80;80.90;;;;;;5035507;28;20076;-80
2023/04/03 10:34:37;;;;;;;0.00;0.00;;;10.70;39.90;;;;;;5034266;28;20038;-80
2023/04/03 10:37:25;;;;;;;0.00;0.00;;;10.60;21.20;;;;;;5034349;28;20048;-80
2023/04/03 10:40:20;;;;;;;0.00;0.00;;;10.60;8.80;;;;;;5017959;28;20045;-80
2023/04/03 10:43:09;;;;;;;0.00;0.00;;;10.60;2.00;;;;;;5034758;28;20041;-80
2023/04/03 10:45:53;;;;;;;0.00;0.00;;;10.70;1.00;;;;;;5034425;28;20136;-80
2023/04/03 10:48:33;;;;;;;0.17;0.08;;;10.70;1.00;;;;;;5034510;28;20535;-80
2023/04/03 10:51:36;;;;;;;0.00;0.00;;;10.90;1.00;;;;;;5034349;28;20152;-80
2023/04/03 10:54:38;;;;;;;2.65;0.45;;;11.00;1.00;;;;;;5017813;28;20080;-80
2023/04/03 10:57:07;;;;;;;2.13;0.52;;;11.00;1.00;;;;;;5024474;28;20530;-80
2023/04/03 10:59:59;;;;;;;0.00;0.00;;;11.20;1.00;;;;;;5034768;28;20049;-80
2023/04/03 11:02:45;;;;;;;0.00;0.00;;;11.20;1.00;;;;;;5034325;28;20060;-80
2023/04/03 11:05:37;;;;;;;0.00;0.00;;;11.10;1.00;;;;;;5033957;28;20136;-81
2023/04/03 11:08:23;;;;;;;0.00;0.00;;;11.40;1.00;;;;;;5026857;28;20053;-80
2023/04/03 11:10:51;;;;;;;0.10;0.10;;;11.60;1.00;;;;;;5034846;28;20118;-80
2023/04/03 11:13:32;;;;;;;0.00;0.00;;;11.70;1.00;;;;;;5017663;28;20053;-80
2023/04/03 11:15:58;;;;;;;0.05;0.05;;;11.50;1.00;;;;;;5034573;28;20495;-80
2023/04/03 11:18:48;;;;;;;0.00;0.00;;;11.30;1.00;;;;;;5017326;28;20053;-80
2023/04/03 11:21:51;;;;;;;0.00;0.00;;;11.60;1.00;;;;;;5017987;28;20053;-80
2023/04/03 11:24:25;;;;;;;0.10;0.10;;;11.50;1.00;;;;;;5034487;28;20080;-80
2023/04/03 11:26:52;;;;;;;0.00;0.00;;;11.20;1.00;;;;;;5034613;28;20056;-80
2023/04/03 11:29:23;;;;;;;0.52;0.35;;;11.40;1.00;;;;;;5017279;28;20049;-80
2023/04/03 11:32:01;;;;;;;0.00;0.00;;;11.30;1.00;;;;;;5034145;28;20052;-80
2023/04/03 11:34:36;;;;;;;0.00;0.00;;;11.40;1.00;;;;;;5033630;28;20045;-80
2023/04/03 11:37:10;;;;;;;0.00;0.00;;;11.60;1.00;;;;;;5033625;28;20053;-80
2023/04/03 11:39:38;;;;;;;0.00;0.00;;;11.40;1.00;;;;;;5033697;28;20045;-80
2023/04/03 11:42:25;;;;;;;0.52;0.52;;;11.30;1.00;;;;;;5033036;28;20125;-80
2023/04/03 11:45:11;;;;;;;0.00;0.00;;;11.20;1.00;;;;;;5033648;28;20046;-80
2023/04/03 11:47:52;;;;;;;1.80;0.80;;;11.20;1.00;;;;;;5032866;28;20056;-80
2023/04/03 11:50:37;;;;;;;0.00;0.00;;;11.30;1.00;;;;;;5033055;28;20089;-80
2023/04/03 11:53:05;;;;;;;0.10;0.08;;;11.50;1.00;;;;;;5016614;28;20049;-80
2023/04/03 11:55:31;;;;;;;0.00;0.00;;;11.40;1.00;;;;;;5016265;28;20050;-79
2023/04/03 11:58:00;;;;;;;0.32;0.28;;;11.50;1.00;;;;;;5033255;28;20049;-80
2023/04/03 12:00:44;;;;;;;0.00;0.00;;;11.40;1.00;;;;;;5034041;28;20053;-80
2023/04/03 12:03:26;;;;;;;0.37;0.20;;;11.20;1.00;;;;;;5016466;28;20057;-80
2023/04/03 12:05:52;;;;;;;0.00;0.00;;;11.40;1.00;;;;;;5032790;28;20485;-81
2023/04/03 12:08:26;;;;;;;0.00;0.00;;;11.30;1.00;;;;;;5032575;28;20111;-80
2023/04/03 12:11:10;;;;;;;0.00;0.00;;;11.50;1.00;;;;;;5032855;28;20120;-80
2023/04/03 12:13:42;;;;;;;0.00;0.00;;;11.70;1.00;;;;;;5016476;28;20057;-80
2023/04/03 12:16:31;;;;;;;0.20;0.20;;;11.50;1.00;;;;;;5016223;28;20049;-87
2023/04/03 12:19:03;;;;;;;0.00;0.00;;;11.40;1.00;;;;;;5009852;28;20057;-87
2023/04/03 12:21:47;;;;;;;0.00;0.00;;;11.30;1.00;;;;;;5016484;28;20049;-88
2023/04/03 12:24:15;;;;;;;0.15;0.00;;;11.20;1.00;;;;;;5033410;28;20048;-88
2023/04/03 12:27:20;;;;;;;0.00;0.00;;;11.50;1.00;;;;;;5033144;28;20042;-88
2023/04/03 12:30:21;;;;;;;0.00;0.00;;;12.00;1.00;;;;;;5017239;28;20049;-88
2023/04/03 12:33:25;;;;;;;0.20;0.10;;;11.80;1.00;;;;;;5012764;28;20085;-88
2023/04/03 12:35:54;;;;;;;0.00;0.00;;;11.80;1.00;;;;;;5019521;28;20075;-88
2023/04/03 12:38:37;;;;;;;0.00;0.00;;;11.60;1.00;;;;;;5016543;28;20056;-88
2023/04/03 12:41:14;;;;;;;1.27;0.13;;;11.60;1.00;;;;;;5032345;28;20041;-88
2023/04/03 12:44:13;;;;;;;0.00;0.00;;;11.60;1.00;;;;;;5032567;28;20049;-88
2023/04/03 12:46:48;;;;;;;0.00;0.00;;;11.60;1.00;;;;;;4964812;28;20170;-88
2023/04/03 12:49:29;;;;;;;0.00;0.00;;;11.80;1.00;;;;;;5033016;28;20049;-88
2023/04/03 12:51:55;;;;;;;0.00;0.00;;;11.90;1.00;;;;;;5032863;28;20049;-88
2023/04/03 12:54:36;;;;;;;0.00;0.00;;;11.80;1.00;;;;;;5016354;28;20107;-88
2023/04/03 12:57:16;;;;;;;0.00;0.00;;;11.70;1.00;;;;;;5015787;28;20485;-88
2023/04/03 12:59:45;;;;;;;0.00;0.00;;;11.70;1.00;;;;;;5017403;28;20053;-89
2023/04/03 13:02:33;;;;;;;0.00;0.00;;;11.70;1.00;;;;;;5020643;28;20128;-88
2023/04/03 13:05:06;;;;;;;0.00;0.00;;;11.70;1.00;;;;;;5019934;28;20049;-88
2023/04/03 13:07:34;;;;;;;0.00;0.00;;;11.80;1.00;;;;;;5036478;28;20054;-88
2023/04/03 13:10:16;;;;;;;0.00;0.00;;;11.70;1.00;;;;;;5036573;28;20057;-88
2023/04/03 13:13:09;;;;;;;0.10;0.10;;;11.90;1.00;;;;;;5037070;28;20057;-87
2023/04/03 13:15:45;;;;;;;0.00;0.00;;;12.20;1.00;;;;;;5036209;28;20041;-88